Time;durP1;ratioP1;P1;durP2;ratioP2;P2;SDS_P1;SDS_P2;PMS_P1;PMS_P2;Temp;Humidity;BMP_temperature;BMP_pressure;BME280_temperature;BME280_humidity;BME280_pressure;Samples;Min_cycle;Max_cycle;Signal;HPM_P1;HPM_P2
2022/10/27 04:35:53;;;;;;;4.93;2.58;;;;;;;;;;6083945;23;20049;-82
2022/10/27 04:49:21;;;;;;;;;;;;;;;;;;;;;
2022/10/27 09:55:02;;;;;;;4.00;1.90;;;;;;;;;;6078092;23;20074;-91
2022/10/27 09:57:37;;;;;;;4.63;2.35;;;;;;;;;;6068758;23;20027;-89
2022/10/27 10:00:07;;;;;;;10.25;2.15;;;;;;;;;;6069507;23;20027;-90
2022/10/27 10:03:07;;;;;;;4.95;3.92;;;;;;;;;;6069916;23;20022;-91
2022/10/27 11:47:39;;;;;;;7.43;2.42;;;17.60;99.90;;;;;;6097079;23;20026;-89
2022/10/27 14:04:19;;;;;;;3.75;1.70;;;19.50;99.90;;;;;;6088192;23;20026;-78
2022/10/27 14:06:49;;;;;;;8.20;2.08;;;19.40;99.90;;;;;;6101989;23;20026;-78
2022/10/27 14:09:44;;;;;;;7.35;3.08;;;19.40;99.90;;;;;;6069613;23;20031;-78
2022/10/27 14:12:25;;;;;;;2.63;2.35;;;19.40;99.90;;;;;;6096493;23;20038;-78
2022/10/27 14:15:01;;;;;;;9.02;1.90;;;19.30;99.90;;;;;;6102080;23;20022;-78
2022/10/27 14:17:29;;;;;;;3.80;2.03;;;19.30;99.90;;;;;;6079791;23;20017;-77
2022/10/27 14:20:35;;;;;;;6.20;1.45;;;19.30;99.90;;;;;;6096854;23;20033;-78
2022/10/27 14:23:12;;;;;;;8.52;2.95;;;19.30;99.90;;;;;;5983606;23;20030;-79
2022/10/27 14:25:40;;;;;;;2.55;1.55;;;19.30;99.90;;;;;;6088140;23;20029;-79
2022/10/27 14:28:07;;;;;;;3.28;1.92;;;19.20;99.90;;;;;;6096469;23;20018;-78
2022/10/27 14:30:35;;;;;;;3.30;1.63;;;19.30;99.90;;;;;;6102187;23;20338;-78
2022/10/27 14:33:26;;;;;;;6.40;2.42;;;19.10;99.90;;;;;;6104811;23;20019;-79
2022/10/27 18:08:10;;;;;;;7.35;3.05;;;12.30;99.90;;;;;;6109986;23;20030;-90
2022/10/27 20:43:43;;;;;;;6.35;3.60;;;11.40;99.90;;;;;;6087886;23;20442;-91
2022/10/27 21:03:02;;;;;;;;;;;;;;;;;;;;;
2022/10/27 21:15:10;;;;;;;2.55;2.17;;;10.30;99.90;;;;;;6096443;23;20022;-88
2022/10/27 21:17:40;;;;;;;5.38;2.50;;;10.60;99.90;;;;;;6048224;23;20034;-88
2022/10/27 21:20:36;;;;;;;4.82;2.65;;;10.80;99.90;;;;;;6035547;23;20034;-90
2022/10/27 21:24:12;;;;;;;2.30;2.10;;;11.00;99.90;;;;;;5985225;23;20042;-90
2022/10/27 21:27:26;;;;;;;2.65;2.15;;;11.30;99.90;;;;;;6037850;23;20019;-90
2022/10/27 21:31:18;;;;;;;5.28;2.90;;;11.40;99.90;;;;;;5991522;23;20030;-90
2022/10/27 21:35:21;;;;;;;9.25;2.25;;;11.40;99.90;;;;;;6114637;23;20039;-92
2022/10/27 21:37:49;;;;;;;2.80;2.50;;;11.40;99.90;;;;;;6054377;23;20449;-92
2022/10/27 21:40:22;;;;;;;8.65;2.40;;;11.50;99.90;;;;;;6100993;23;20313;-91
2022/10/27 21:42:53;;;;;;;4.55;2.58;;;11.40;99.90;;;;;;6053871;23;20025;-91
2022/10/27 21:45:21;;;;;;;17.73;2.90;;;11.40;99.90;;;;;;6078116;23;20395;-92
2022/10/27 21:47:55;;;;;;;7.95;3.85;;;11.40;99.90;;;;;;6054804;23;20026;-93
2022/10/27 21:50:30;;;;;;;2.13;2.00;;;11.20;99.90;;;;;;6055427;23;20018;-93
2022/10/27 21:52:58;;;;;;;11.05;2.72;;;11.10;99.90;;;;;;6078402;23;20014;-92
2022/10/27 21:55:27;;;;;;;3.30;2.60;;;11.20;99.90;;;;;;6077761;23;20446;-92
2022/10/27 21:58:02;;;;;;;6.63;2.60;;;11.10;99.90;;;;;;6078268;23;20156;-92
2022/10/27 22:00:32;;;;;;;3.20;2.90;;;11.20;99.90;;;;;;6055067;23;20044;-92
2022/10/27 22:03:02;;;;;;;2.97;1.92;;;11.30;99.90;;;;;;6077591;23;20478;-92
2022/10/27 22:05:30;;;;;;;2.50;2.30;;;11.30;99.90;;;;;;6054835;23;20018;-93
2022/10/27 22:08:04;;;;;;;;;;;11.30;99.90;;;;;;6079544;23;20036;-92
2022/10/27 22:10:34;;;;;;;3.05;2.58;;;11.20;99.90;;;;;;6099924;23;19924;-92
2022/10/27 22:13:09;;;;;;;2.40;2.20;;;11.20;99.90;;;;;;6055763;23;20026;-92
2022/10/27 22:15:42;;;;;;;3.90;2.55;;;11.10;99.90;;;;;;6056133;23;20480;-92
2022/10/27 22:18:14;;;;;;;5.55;3.03;;;11.10;99.90;;;;;;6066408;23;20018;-92
2022/10/27 22:20:42;;;;;;;7.78;3.28;;;10.90;99.90;;;;;;6080507;23;20341;-92
2022/10/27 22:23:10;;;;;;;1.95;1.85;;;10.60;99.90;;;;;;6055452;23;20025;-91
2022/10/27 22:25:39;;;;;;;3.00;2.53;;;10.30;99.90;;;;;;6079531;23;20459;-92
2022/10/27 22:28:12;;;;;;;13.95;2.75;;;10.10;99.90;;;;;;6056060;23;20453;-92
2022/10/27 22:30:44;;;;;;;2.35;2.10;;;10.00;99.90;;;;;;6043287;23;20021;-92
2022/10/27 22:33:16;;;;;;;2.60;2.38;;;10.10;99.90;;;;;;6079882;23;20445;-92
2022/10/27 22:35:44;;;;;;;6.05;1.95;;;10.10;99.90;;;;;;6074582;23;20030;-92
2022/10/27 22:38:14;;;;;;;5.45;2.83;;;10.20;99.90;;;;;;6027525;23;20028;-92
2022/10/27 22:40:46;;;;;;;2.30;2.10;;;10.30;99.90;;;;;;6103460;23;20018;-92
2022/10/27 22:43:17;;;;;;;6.88;2.70;;;10.30;99.90;;;;;;6127067;23;20461;-91
2022/10/27 22:45:52;;;;;;;3.28;2.33;;;10.40;99.90;;;;;;6103652;23;20021;-92
2022/10/27 22:48:20;;;;;;;3.78;3.38;;;10.40;99.90;;;;;;6078905;23;20033;-93
2022/10/27 22:50:48;;;;;;;2.47;2.20;;;10.30;99.90;;;;;;6078047;23;20022;-92
2022/10/27 22:53:15;;;;;;;2.53;2.30;;;10.20;99.90;;;;;;6079849;23;20025;-92
2022/10/27 22:55:43;;;;;;;8.63;2.40;;;10.30;99.90;;;;;;6079409;23;20480;-91
2022/10/27 22:58:11;;;;;;;4.57;2.03;;;10.40;99.90;;;;;;6079197;23;20021;-91
2022/10/27 23:00:41;;;;;;;3.00;2.55;;;10.50;99.90;;;;;;6079480;23;20025;-92
2022/10/27 23:03:08;;;;;;;2.05;1.95;;;10.70;99.90;;;;;;6079342;23;20022;-92
2022/10/27 23:05:40;;;;;;;2.60;2.38;;;10.70;99.90;;;;;;6079241;23;20015;-91
2022/10/27 23:08:08;;;;;;;2.85;2.53;;;10.60;99.90;;;;;;6078598;23;20034;-92
2022/10/27 23:16:04;;;;;;;4.35;2.72;;;10.70;99.90;;;;;;6130717;23;20025;-92
2022/10/27 23:18:36;;;;;;;2.20;2.00;;;11.10;99.90;;;;;;6079723;23;20029;-93
2022/10/27 23:21:05;;;;;;;3.83;3.53;;;11.20;99.90;;;;;;6079225;23;20029;-93
2022/10/27 23:23:39;;;;;;;2.85;2.65;;;11.20;99.90;;;;;;6061848;23;20026;-92
2022/10/27 23:26:06;;;;;;;15.30;3.53;;;11.20;99.90;;;;;;6026791;23;20446;-92
2022/10/27 23:28:34;;;;;;;3.67;2.30;;;11.00;99.90;;;;;;6073145;23;20026;-93
2022/10/27 23:31:02;;;;;;;4.10;2.92;;;10.90;99.90;;;;;;6048941;23;20049;-92
2022/10/27 23:33:30;;;;;;;1.98;1.83;;;10.70;99.90;;;;;;6026428;23;20355;-92
2022/10/27 23:36:00;;;;;;;2.03;1.83;;;10.60;99.90;;;;;;6042232;23;20034;-92
2022/10/27 23:38:28;;;;;;;7.78;4.68;;;10.70;99.90;;;;;;6051618;23;20024;-93
2022/10/27 23:42:00;;;;;;;2.65;1.98;;;10.70;99.90;;;;;;6078328;23;20025;-92
2022/10/27 23:44:27;;;;;;;4.70;2.63;;;10.60;99.90;;;;;;6026982;23;20022;-91
2022/10/27 23:46:55;;;;;;;2.60;2.40;;;10.40;99.90;;;;;;6052810;23;20014;-90
2022/10/27 23:49:23;;;;;;;2.13;1.90;;;10.40;99.90;;;;;;6042179;23;20355;-93
2022/10/27 23:51:50;;;;;;;6.28;2.67;;;10.40;99.90;;;;;;6056106;23;20023;-93
2022/10/27 23:54:18;;;;;;;4.05;2.55;;;10.40;99.90;;;;;;6073023;23;20034;-92
2022/10/27 23:56:46;;;;;;;3.70;2.95;;;10.40;99.90;;;;;;6073400;23;20028;-93
2022/10/27 23:59:13;;;;;;;3.33;2.42;;;10.30;99.90;;;;;;6071538;23;20026;-92
